createdAt,value
2019-02-05T00:01:27.519Z,6.90
2019-02-05T00:04:08.782Z,9.07
2019-02-05T00:06:49.561Z,10.73
2019-02-05T00:09:31.429Z,14.73
2019-02-05T00:12:12.977Z,9.80
2019-02-05T00:14:53.673Z,11.30
2019-02-05T00:17:34.436Z,15.77
2019-02-05T00:20:15.837Z,8.97
2019-02-05T00:22:56.488Z,9.50
2019-02-05T00:25:37.891Z,6.77
2019-02-05T00:31:08.344Z,6.83
2019-02-05T00:36:37.860Z,10.70
2019-02-05T00:39:19.134Z,6.83
2019-02-05T00:42:01.382Z,7.67
2019-02-05T00:44:43.303Z,9.97
2019-02-05T00:47:26.297Z,9.20
2019-02-05T00:50:07.591Z,4.67
2019-02-05T00:52:48.672Z,5.23
2019-02-05T00:55:29.526Z,5.17
2019-02-05T00:58:13.506Z,5.13
2019-02-05T01:00:54.823Z,5.70
2019-02-05T01:03:36.131Z,5.63
2019-02-05T01:06:17.052Z,3.83
2019-02-05T01:08:57.941Z,4.23
2019-02-05T01:11:39.005Z,5.90
2019-02-05T01:14:20.411Z,7.40
2019-02-05T01:17:02.639Z,7.10
2019-02-05T01:19:45.275Z,5.00
2019-02-05T01:22:26.127Z,4.93
2019-02-05T01:25:08.829Z,5.80
2019-02-05T01:27:50.233Z,3.57
2019-02-05T01:30:31.562Z,9.80
2019-02-05T01:33:12.570Z,4.60
2019-02-05T01:35:53.744Z,3.43
2019-02-05T01:38:35.865Z,6.87
2019-02-05T01:41:20.341Z,4.80
2019-02-05T01:44:02.427Z,9.00
2019-02-05T01:46:43.168Z,2.70
2019-02-05T01:49:24.640Z,3.87
2019-02-05T01:52:05.988Z,7.00
2019-02-05T01:57:31.409Z,4.80
2019-02-05T02:00:13.775Z,4.43
2019-02-05T02:02:55.440Z,10.20
2019-02-05T02:05:36.682Z,4.67
2019-02-05T02:08:17.927Z,4.77
2019-02-05T02:10:59.097Z,6.83
2019-02-05T02:13:41.455Z,4.83
2019-02-05T02:16:23.089Z,6.03
2019-02-05T02:19:04.541Z,4.03
2019-02-05T02:21:45.950Z,3.10
2019-02-05T02:24:26.760Z,4.50
2019-02-05T02:27:07.455Z,4.83
2019-02-05T02:29:48.853Z,6.47
2019-02-05T02:35:08.412Z,7.57
2019-02-05T02:37:51.404Z,4.23
2019-02-05T02:40:32.680Z,4.20
2019-02-05T02:43:14.352Z,6.13
2019-02-05T02:45:56.048Z,9.70
2019-02-05T02:48:37.018Z,6.33
2019-02-05T02:51:18.199Z,19.23
2019-02-05T02:54:00.998Z,20.00
2019-02-05T02:56:42.980Z,6.30
2019-02-05T02:59:24.366Z,4.67
2019-02-05T03:02:05.438Z,5.07
2019-02-05T03:04:46.356Z,6.47
2019-02-05T03:07:27.539Z,8.30
2019-02-05T03:12:52.499Z,3.90
2019-02-05T03:15:33.173Z,6.87
2019-02-05T03:18:15.000Z,4.67
2019-02-05T03:20:56.060Z,3.07
2019-02-05T03:23:37.771Z,6.27
2019-02-05T03:26:20.022Z,7.37
2019-02-05T03:29:01.246Z,5.60
2019-02-05T03:31:42.809Z,4.70
2019-02-05T03:34:23.969Z,6.30
2019-02-05T03:37:04.485Z,7.40
2019-02-05T03:39:45.664Z,4.00
2019-02-05T03:45:05.575Z,4.30
2019-02-05T03:47:47.145Z,5.40
2019-02-05T03:50:28.336Z,5.80
2019-02-05T03:53:09.715Z,4.67
2019-02-05T03:55:50.919Z,3.60
2019-02-05T03:58:31.995Z,4.07
2019-02-05T04:01:12.613Z,4.87
2019-02-05T04:03:53.846Z,4.57
2019-02-05T04:06:35.206Z,8.60
2019-02-05T04:09:16.174Z,5.47
2019-02-05T04:11:57.091Z,6.23
2019-02-05T04:14:37.756Z,4.20
2019-02-05T04:17:19.024Z,3.37
2019-02-05T04:20:00.298Z,4.40
2019-02-05T04:22:41.340Z,3.93
2019-02-05T04:25:22.300Z,5.00
2019-02-05T04:28:03.088Z,4.70
2019-02-05T04:30:44.343Z,6.37
2019-02-05T04:33:25.011Z,8.60
2019-02-05T04:36:05.741Z,4.80
2019-02-05T04:38:46.601Z,9.00
2019-02-05T04:41:27.967Z,4.47
2019-02-05T04:47:13.136Z,7.23
2019-02-05T04:49:54.281Z,4.63
2019-02-05T04:52:35.635Z,7.33
2019-02-05T04:55:17.104Z,5.90
2019-02-05T04:58:01.158Z,7.73
2019-02-05T05:00:40.938Z,10.00
2019-02-05T05:03:22.598Z,5.50
2019-02-05T05:06:04.090Z,8.57
2019-02-05T05:08:45.297Z,7.67
2019-02-05T05:11:26.285Z,5.77
2019-02-05T05:14:10.216Z,9.00
2019-02-05T05:16:51.512Z,4.10
2019-02-05T05:19:33.753Z,5.50
2019-02-05T05:24:58.228Z,11.30
2019-02-05T05:27:39.024Z,7.03
2019-02-05T05:30:20.614Z,8.50
2019-02-05T05:35:47.023Z,7.40
2019-02-05T05:38:27.160Z,9.10
2019-02-05T05:41:08.183Z,8.60
2019-02-05T05:43:49.560Z,9.60
2019-02-05T05:46:30.262Z,7.53
2019-02-05T05:49:11.741Z,5.47
2019-02-05T05:51:53.337Z,5.47
2019-02-05T05:54:34.178Z,7.27
2019-02-05T05:57:15.030Z,7.00
2019-02-05T05:59:57.391Z,6.67
2019-02-05T06:02:39.956Z,9.37
2019-02-05T06:05:21.327Z,8.17
2019-02-05T06:08:02.975Z,7.10
2019-02-05T06:13:28.921Z,12.40
2019-02-05T06:16:10.771Z,6.50
2019-02-05T06:18:52.018Z,6.70
2019-02-05T06:21:33.974Z,8.07
2019-02-05T06:24:15.390Z,10.00
2019-02-05T06:26:55.956Z,14.13
2019-02-05T06:29:37.023Z,8.43
2019-02-05T06:32:18.780Z,9.20
2019-02-05T06:34:59.723Z,9.70
2019-02-05T06:37:40.690Z,9.23
2019-02-05T06:40:22.320Z,13.10
2019-02-05T06:43:02.868Z,6.97
2019-02-05T06:45:43.791Z,7.17
2019-02-05T06:48:24.437Z,15.73
2019-02-05T06:51:05.207Z,7.03
2019-02-05T06:56:30.963Z,10.70
2019-02-05T07:02:31.159Z,11.73
2019-02-05T07:05:12.453Z,8.93
2019-02-05T07:07:53.014Z,10.40
2019-02-05T07:10:33.926Z,15.87
2019-02-05T07:13:14.851Z,19.63
2019-02-05T07:15:56.110Z,17.10
2019-02-05T07:18:37.794Z,14.13
2019-02-05T07:21:19.167Z,29.50
2019-02-05T07:24:00.444Z,33.33
2019-02-05T07:29:26.876Z,71.27
2019-02-05T07:32:07.648Z,124.53
2019-02-05T07:34:48.709Z,61.10
2019-02-05T07:37:29.459Z,17.10
2019-02-05T07:40:10.491Z,13.53
2019-02-05T07:42:51.779Z,12.20
2019-02-05T07:45:33.569Z,10.67
2019-02-05T07:48:14.542Z,8.97
2019-02-05T07:50:55.158Z,16.43
2019-02-05T07:53:36.067Z,40.63
2019-02-05T07:56:16.946Z,22.40
2019-02-05T07:59:09.552Z,40.03
2019-02-05T08:01:41.724Z,61.37
2019-02-05T08:04:22.992Z,64.23
2019-02-05T08:07:04.455Z,45.10
2019-02-05T08:09:46.984Z,19.80
2019-02-05T08:12:27.936Z,20.70
2019-02-05T08:15:09.421Z,21.10
2019-02-05T08:17:49.817Z,18.43
2019-02-05T08:20:30.393Z,16.73
2019-02-05T08:23:11.810Z,12.93
2019-02-05T08:25:53.370Z,19.43
2019-02-05T08:28:41.100Z,18.40
2019-02-05T08:31:20.293Z,19.47
2019-02-05T08:34:03.335Z,15.17
2019-02-05T08:36:44.015Z,12.57
2019-02-05T08:39:25.553Z,18.20
2019-02-05T08:42:06.288Z,18.40
2019-02-05T08:44:47.368Z,19.33
2019-02-05T08:47:28.602Z,15.73
2019-02-05T08:50:09.321Z,16.23
2019-02-05T08:52:50.537Z,13.93
2019-02-05T08:55:32.119Z,15.53
2019-02-05T08:58:13.181Z,20.60
2019-02-05T09:00:55.807Z,17.00
2019-02-05T09:03:37.081Z,18.17
2019-02-05T09:06:17.674Z,19.10
2019-02-05T09:08:59.256Z,31.97
2019-02-05T09:11:40.153Z,54.33
2019-02-05T09:14:21.674Z,20.43
2019-02-05T09:17:02.468Z,15.93
2019-02-05T09:22:27.669Z,17.83
2019-02-05T09:27:53.319Z,19.00
2019-02-05T09:30:34.544Z,17.63
2019-02-05T09:33:15.399Z,30.63
2019-02-05T09:35:56.948Z,23.20
2019-02-05T09:38:38.506Z,21.07
2019-02-05T09:44:04.447Z,20.80
2019-02-05T09:46:45.743Z,15.70
2019-02-05T09:49:27.098Z,23.93
2019-02-05T09:52:08.842Z,20.37
2019-02-05T09:54:49.901Z,22.70
2019-02-05T10:00:15.709Z,18.67
2019-02-05T10:02:56.670Z,22.00
2019-02-05T10:08:42.756Z,16.93
2019-02-05T10:11:23.658Z,16.23
2019-02-05T10:14:04.251Z,16.33
2019-02-05T10:16:45.036Z,16.37
2019-02-05T10:19:27.265Z,18.57
2019-02-05T10:22:08.307Z,19.00
2019-02-05T10:24:49.930Z,24.63
2019-02-05T10:27:31.204Z,18.63
2019-02-05T10:30:12.004Z,20.57
2019-02-05T10:32:52.805Z,21.27
2019-02-05T10:35:33.475Z,25.27
2019-02-05T10:38:14.293Z,12.30
2019-02-05T10:40:54.954Z,14.70
2019-02-05T10:43:36.423Z,15.03
2019-02-05T10:46:17.045Z,11.47
2019-02-05T10:48:57.669Z,14.47
2019-02-05T10:51:39.407Z,10.97
2019-02-05T10:54:19.902Z,10.40
2019-02-05T10:57:00.694Z,13.07
2019-02-05T11:02:25.646Z,15.93
2019-02-05T11:05:06.485Z,11.50
2019-02-05T11:07:47.273Z,12.83
2019-02-05T11:10:28.343Z,13.67
2019-02-05T11:13:09.198Z,11.47
2019-02-05T11:15:49.865Z,12.90
2019-02-05T11:18:31.688Z,13.17
2019-02-05T11:21:13.377Z,12.30
2019-02-05T11:23:54.481Z,10.97
2019-02-05T11:29:54.397Z,11.03
2019-02-05T11:32:34.890Z,11.50
2019-02-05T11:35:15.700Z,12.77
2019-02-05T11:37:56.263Z,14.90
2019-02-05T11:40:37.137Z,11.47
2019-02-05T11:43:18.083Z,15.47
2019-02-05T11:45:59.329Z,13.67
2019-02-05T11:48:40.233Z,12.27
2019-02-05T11:54:50.648Z,16.23
2019-02-05T11:57:31.922Z,19.10
2019-02-05T12:06:10.834Z,14.10
2019-02-05T12:08:51.902Z,12.90
2019-02-05T12:11:32.830Z,15.90
2019-02-05T12:14:13.485Z,24.63
2019-02-05T12:16:57.611Z,15.40
2019-02-05T12:19:38.857Z,18.97
2019-02-05T12:22:19.202Z,16.13
2019-02-05T12:30:44.334Z,16.93
2019-02-05T12:33:18.188Z,19.33
2019-02-05T12:35:58.980Z,18.10
2019-02-05T12:38:40.127Z,19.93
2019-02-05T12:41:20.617Z,18.40
2019-02-05T12:44:02.299Z,16.80
2019-02-05T12:46:43.360Z,15.73
2019-02-05T12:49:24.594Z,17.10
2019-02-05T12:52:06.011Z,19.57
2019-02-05T12:54:48.094Z,20.90
2019-02-05T12:57:29.758Z,16.57
2019-02-05T13:00:10.719Z,20.17
2019-02-05T13:02:54.484Z,25.23
2019-02-05T13:08:53.297Z,18.63
2019-02-05T13:11:34.741Z,21.30
2019-02-05T13:14:16.075Z,20.20
2019-02-05T13:16:57.104Z,17.77
2019-02-05T13:19:37.576Z,15.13
2019-02-05T13:22:18.189Z,16.47
2019-02-05T13:24:59.000Z,19.47
2019-02-05T13:27:40.347Z,20.70
2019-02-05T13:30:22.091Z,21.07
2019-02-05T13:33:03.141Z,20.70
2019-02-05T13:35:44.147Z,18.63
2019-02-05T13:38:25.232Z,18.80
2019-02-05T13:41:08.548Z,20.97
2019-02-05T13:43:37.680Z,21.97
2019-02-05T13:46:19.043Z,19.97
2019-02-05T13:49:00.139Z,21.23
2019-02-05T13:51:41.498Z,23.70
2019-02-05T13:54:21.336Z,22.40
2019-02-05T13:57:02.396Z,18.83
2019-02-05T13:59:44.797Z,18.43
2019-02-05T14:02:26.574Z,24.63
2019-02-05T14:05:08.218Z,22.67
2019-02-05T14:07:49.484Z,21.97
2019-02-05T14:13:09.068Z,23.30
2019-02-05T14:15:50.422Z,24.80
2019-02-05T14:18:31.711Z,19.20
2019-02-05T14:21:13.161Z,23.67
2019-02-05T14:23:54.873Z,31.83
2019-02-05T14:26:36.503Z,21.13
2019-02-05T14:29:17.895Z,38.30
2019-02-05T14:31:59.541Z,24.00
2019-02-05T14:34:41.202Z,25.83
2019-02-05T14:37:24.150Z,22.87
2019-02-05T14:40:05.525Z,25.47
2019-02-05T14:42:47.045Z,26.70
2019-02-05T14:45:27.808Z,24.70
2019-02-05T14:48:08.690Z,22.80
2019-02-05T14:50:49.513Z,25.73
2019-02-05T14:53:31.621Z,23.17
2019-02-05T14:56:12.828Z,27.17
2019-02-05T15:01:43.191Z,25.03
2019-02-05T15:04:21.470Z,21.53
2019-02-05T15:07:03.342Z,23.07
2019-02-05T15:09:44.440Z,28.30
2019-02-05T15:12:28.952Z,23.77
2019-02-05T15:15:09.920Z,30.17
2019-02-05T15:17:52.832Z,30.70
2019-02-05T15:20:33.775Z,39.17
2019-02-05T15:23:14.879Z,35.83
2019-02-05T15:25:56.652Z,75.73
2019-02-05T15:28:41.870Z,34.23
2019-02-05T15:31:26.656Z,29.60
2019-02-05T15:34:08.751Z,24.47
2019-02-05T15:36:50.199Z,29.43
2019-02-05T15:39:31.851Z,25.67
2019-02-05T15:45:32.803Z,24.43
2019-02-05T15:48:13.808Z,31.60
2019-02-05T15:50:55.524Z,33.00
2019-02-05T15:53:39.750Z,31.20
2019-02-05T15:59:07.330Z,25.60
2019-02-05T16:01:48.629Z,23.73
2019-02-05T16:04:35.379Z,28.80
2019-02-05T16:07:19.663Z,28.00
2019-02-05T16:10:01.309Z,25.70
2019-02-05T16:12:49.183Z,29.93
2019-02-05T16:15:31.288Z,28.33
2019-02-05T16:18:14.726Z,31.87
2019-02-05T16:20:56.107Z,38.60
2019-02-05T16:23:37.951Z,31.90
2019-02-05T16:26:19.513Z,34.10
2019-02-05T16:29:01.185Z,36.97
2019-02-05T16:31:43.924Z,34.80
2019-02-05T16:34:25.698Z,37.27
2019-02-05T16:37:06.608Z,35.53
2019-02-05T16:39:47.727Z,30.80
2019-02-05T16:42:28.425Z,36.83
2019-02-05T16:45:09.936Z,34.27
2019-02-05T16:47:50.966Z,33.90
2019-02-05T16:53:15.598Z,38.13
2019-02-05T16:58:41.419Z,47.03
2019-02-05T17:01:24.897Z,48.13
2019-02-05T17:04:05.673Z,43.50
2019-02-05T17:09:31.828Z,36.80
2019-02-05T17:12:13.448Z,37.50
2019-02-05T17:18:05.777Z,39.63
2019-02-05T17:20:47.635Z,36.00
2019-02-05T17:23:29.992Z,37.60
2019-02-05T17:26:11.376Z,34.20
2019-02-05T17:35:09.192Z,42.53
2019-02-05T17:37:49.981Z,37.37
2019-02-05T17:40:34.653Z,39.57
2019-02-05T17:43:15.975Z,40.40
2019-02-05T17:45:57.262Z,36.90
2019-02-05T17:48:26.675Z,43.37
2019-02-05T17:51:15.167Z,42.53
2019-02-05T17:53:57.063Z,42.70
2019-02-05T17:56:38.777Z,46.17
2019-02-05T17:59:20.549Z,48.83
2019-02-05T18:02:01.591Z,44.57
2019-02-05T18:04:44.666Z,44.30
2019-02-05T18:07:24.909Z,42.40
2019-02-05T18:10:06.262Z,44.10
2019-02-05T18:12:48.231Z,40.37
2019-02-05T18:15:29.613Z,42.53
2019-02-05T18:18:10.723Z,41.03
2019-02-05T18:20:51.572Z,43.03
2019-02-05T18:23:32.494Z,46.13
2019-02-05T18:26:13.668Z,36.57
2019-02-05T18:28:55.460Z,40.90
2019-02-05T18:31:37.250Z,47.77
2019-02-05T18:37:02.200Z,46.33
2019-02-05T18:39:43.798Z,41.63
2019-02-05T18:42:25.120Z,41.50
2019-02-05T18:48:26.918Z,42.13
2019-02-05T18:51:07.552Z,38.00
2019-02-05T18:53:50.542Z,45.60
2019-02-05T18:56:33.693Z,42.47
2019-02-05T18:59:14.847Z,40.45
2019-02-05T19:01:55.885Z,42.13
2019-02-05T19:04:36.893Z,38.75
2019-02-05T19:07:18.225Z,42.63
2019-02-05T19:10:01.135Z,38.50
2019-02-05T19:12:42.694Z,44.90
2019-02-05T19:15:27.563Z,43.93
2019-02-05T19:18:09.278Z,41.95
2019-02-05T19:23:57.776Z,59.55
2019-02-05T19:26:40.432Z,40.57
2019-02-05T19:29:24.886Z,39.80
2019-02-05T19:34:45.328Z,46.83
2019-02-05T19:37:25.825Z,37.70
2019-02-05T19:40:07.770Z,38.63
2019-02-05T19:55:12.123Z,50.75
2019-02-05T19:57:53.850Z,46.50
2019-02-05T20:00:36.267Z,44.20
2019-02-05T20:03:18.228Z,40.50
2019-02-05T20:06:04.440Z,53.50
2019-02-05T20:08:51.466Z,43.57
2019-02-05T20:11:34.589Z,50.70
2019-02-05T20:14:16.676Z,42.10
2019-02-05T20:17:07.052Z,50.33
2019-02-05T20:19:55.527Z,46.60
2019-02-05T20:22:38.937Z,48.30
2019-02-05T20:28:00.082Z,49.77
2019-02-05T20:30:46.745Z,49.90
2019-02-05T20:39:54.574Z,44.90
2019-02-05T20:45:21.067Z,54.27
2019-02-05T20:51:22.354Z,46.67
2019-02-05T20:54:05.021Z,53.00
2019-02-05T20:56:46.624Z,57.15
2019-02-05T21:02:47.481Z,47.50
2019-02-05T21:11:00.751Z,59.50
2019-02-05T21:13:45.202Z,50.73
2019-02-05T21:16:26.472Z,41.17
2019-02-05T21:22:32.669Z,59.17
2019-02-05T21:33:50.572Z,50.40
2019-02-05T21:36:32.145Z,48.70
2019-02-05T21:39:13.401Z,51.10
2019-02-05T21:41:55.269Z,45.50
2019-02-05T21:56:21.550Z,55.10
2019-02-05T21:59:06.971Z,51.37
2019-02-05T22:01:47.975Z,53.20
2019-02-05T22:07:40.244Z,56.80
2019-02-05T22:13:01.872Z,52.60
2019-02-05T22:15:43.799Z,56.80
2019-02-05T22:18:24.535Z,54.00
2019-02-05T22:21:05.378Z,49.40
2019-02-05T22:23:45.992Z,55.80
2019-02-05T22:26:26.805Z,57.00
2019-02-05T22:29:08.006Z,57.97
2019-02-05T22:34:39.195Z,55.93
2019-02-05T22:37:17.488Z,57.45
2019-02-05T22:39:58.956Z,55.50
2019-02-05T22:45:52.372Z,53.05
2019-02-05T22:51:28.199Z,60.35
2019-02-05T22:54:16.239Z,47.30
2019-02-05T22:56:59.371Z,57.13
2019-02-05T22:59:40.282Z,54.80
2019-02-05T23:02:21.352Z,48.23
2019-02-05T23:05:02.297Z,58.23
2019-02-05T23:07:43.450Z,50.10
2019-02-05T23:10:25.227Z,58.75
2019-02-05T23:13:06.566Z,53.90
2019-02-05T23:18:59.604Z,65.10
2019-02-05T23:21:40.502Z,58.10
2019-02-05T23:27:24.541Z,39.40
2019-02-05T23:30:05.527Z,41.00
2019-02-05T23:32:46.902Z,41.40
2019-02-05T23:38:20.378Z,39.90
2019-02-05T23:41:01.375Z,42.90
2019-02-05T23:43:42.531Z,39.05
2019-02-05T23:49:07.202Z,39.33
2019-02-05T23:51:48.033Z,41.10
2019-02-05T23:57:34.301Z,50.43
